createdAt,value
2018-08-04T00:01:39.320Z,51.70
2018-08-04T00:04:13.737Z,51.90
2018-08-04T00:06:45.248Z,51.90
2018-08-04T00:09:15.909Z,51.70
2018-08-04T00:11:49.193Z,52.50
2018-08-04T00:14:22.280Z,51.90
2018-08-04T00:16:53.862Z,52.00
2018-08-04T00:19:23.616Z,51.90
2018-08-04T00:21:53.320Z,52.00
2018-08-04T00:24:23.262Z,52.10
2018-08-04T00:26:53.229Z,52.00
2018-08-04T00:29:23.083Z,52.00
2018-08-04T00:31:52.305Z,52.10
2018-08-04T00:34:21.575Z,52.30
2018-08-04T00:36:50.818Z,52.20
2018-08-04T00:39:20.102Z,52.20
2018-08-04T00:41:49.933Z,52.20
2018-08-04T00:44:19.199Z,52.20
2018-08-04T00:46:48.419Z,52.20
2018-08-04T00:49:17.693Z,52.30
2018-08-04T00:51:46.957Z,52.40
2018-08-04T00:54:16.145Z,52.40
2018-08-04T00:56:45.728Z,52.40
2018-08-04T00:59:14.956Z,52.50
2018-08-04T01:01:44.240Z,52.50
2018-08-04T01:04:13.435Z,52.70
2018-08-04T01:06:42.654Z,52.80
2018-08-04T01:09:12.043Z,52.90
2018-08-04T01:11:42.302Z,53.10
2018-08-04T01:14:11.505Z,53.20
2018-08-04T01:16:40.824Z,53.50
2018-08-04T01:19:10.804Z,53.70
2018-08-04T01:21:41.733Z,53.80
2018-08-04T01:24:11.576Z,54.00
2018-08-04T01:26:41.470Z,54.10
2018-08-04T01:29:11.926Z,54.20
2018-08-04T01:31:42.487Z,54.10
2018-08-04T01:34:12.545Z,54.20
2018-08-04T01:36:42.213Z,54.30
2018-08-04T01:39:12.719Z,54.40
2018-08-04T01:41:43.987Z,54.60
2018-08-04T01:44:13.223Z,54.70
2018-08-04T01:46:42.503Z,54.90
2018-08-04T01:49:12.488Z,55.30
2018-08-04T01:51:43.090Z,55.60
2018-08-04T01:54:13.506Z,55.80
2018-08-04T01:56:45.161Z,56.30
2018-08-04T01:59:15.577Z,56.70
2018-08-04T02:01:46.403Z,56.90
2018-08-04T02:04:18.109Z,57.20
2018-08-04T02:06:48.757Z,57.50
2018-08-04T02:09:19.099Z,58.00
2018-08-04T02:11:50.390Z,58.30
2018-08-04T02:14:21.228Z,58.90
2018-08-04T02:16:52.126Z,58.60
2018-08-04T02:19:23.212Z,59.00
2018-08-04T02:21:55.837Z,59.10
2018-08-04T02:24:25.770Z,59.20
2018-08-04T02:26:56.064Z,59.50
2018-08-04T02:29:27.212Z,59.20
2018-08-04T02:31:57.938Z,59.50
2018-08-04T02:34:28.881Z,59.30
2018-08-04T02:36:59.030Z,59.30
2018-08-04T02:39:29.596Z,59.10
2018-08-04T02:42:03.888Z,59.30
2018-08-04T02:44:34.697Z,59.20
2018-08-04T02:47:04.786Z,59.50
2018-08-04T02:49:36.230Z,59.50
2018-08-04T02:52:05.801Z,59.70
2018-08-04T02:54:38.748Z,59.90
2018-08-04T02:57:09.875Z,59.70
2018-08-04T02:59:42.653Z,60.30
2018-08-04T03:02:13.873Z,60.50
2018-08-04T03:04:45.503Z,61.00
2018-08-04T03:07:15.472Z,60.90
2018-08-04T03:09:46.541Z,61.10
2018-08-04T03:12:17.400Z,61.20
2018-08-04T03:14:48.913Z,60.90
2018-08-04T03:17:18.678Z,60.80
2018-08-04T03:19:48.355Z,60.60
2018-08-04T03:22:18.234Z,60.40
2018-08-04T03:24:47.986Z,60.60
2018-08-04T03:27:17.974Z,61.40
2018-08-04T03:29:47.900Z,60.90
2018-08-04T03:32:17.580Z,61.00
2018-08-04T03:34:48.179Z,61.20
2018-08-04T03:37:18.783Z,61.40
2018-08-04T03:39:51.878Z,61.70
2018-08-04T03:42:25.163Z,62.00
2018-08-04T03:44:54.732Z,61.90
2018-08-04T03:47:25.632Z,62.40
2018-08-04T03:49:55.904Z,62.80
2018-08-04T03:52:30.362Z,62.60
2018-08-04T03:55:00.823Z,63.40
2018-08-04T03:57:31.413Z,63.00
2018-08-04T04:00:07.575Z,63.10
2018-08-04T04:02:38.997Z,63.10
2018-08-04T04:05:09.050Z,63.40
2018-08-04T04:07:42.484Z,63.60
2018-08-04T04:10:14.368Z,63.40
2018-08-04T04:12:44.930Z,63.50
2018-08-04T04:15:16.981Z,63.20
2018-08-04T04:17:47.810Z,63.50
2018-08-04T04:20:19.976Z,63.60
2018-08-04T04:22:49.992Z,63.60
2018-08-04T04:25:19.300Z,63.70
2018-08-04T04:27:49.313Z,64.00
2018-08-04T04:30:18.640Z,64.20
2018-08-04T04:32:49.828Z,64.50
2018-08-04T04:35:20.152Z,64.40
2018-08-04T04:37:51.285Z,64.60
2018-08-04T04:40:23.702Z,64.80
2018-08-04T04:42:54.093Z,64.90
2018-08-04T04:45:25.106Z,65.30
2018-08-04T04:47:56.603Z,65.30
2018-08-04T04:50:27.429Z,65.30
2018-08-04T04:52:58.633Z,65.60
2018-08-04T04:55:31.164Z,65.50
2018-08-04T04:58:02.253Z,65.60
2018-08-04T05:00:32.700Z,65.90
2018-08-04T05:03:04.486Z,65.80
2018-08-04T05:05:35.392Z,65.70
2018-08-04T05:08:07.850Z,65.70
2018-08-04T05:10:38.684Z,65.40
2018-08-04T05:13:10.088Z,65.50
2018-08-04T05:15:42.771Z,65.40
2018-08-04T05:18:14.236Z,65.20
2018-08-04T05:20:46.607Z,65.30
2018-08-04T05:23:17.991Z,65.30
2018-08-04T05:25:48.724Z,65.10
2018-08-04T05:28:23.108Z,65.30
2018-08-04T05:30:56.483Z,65.00
2018-08-04T05:33:33.035Z,65.20
2018-08-04T05:36:04.805Z,65.10
2018-08-04T05:38:38.268Z,65.20
2018-08-04T05:41:13.560Z,65.00
2018-08-04T05:43:49.879Z,65.10
2018-08-04T05:46:25.611Z,65.10
2018-08-04T05:48:57.537Z,64.90
2018-08-04T05:51:29.741Z,64.80
2018-08-04T05:53:59.624Z,64.80
2018-08-04T05:56:30.387Z,64.80
2018-08-04T05:59:00.904Z,64.70
2018-08-04T06:01:31.702Z,64.60
2018-08-04T06:04:03.756Z,64.60
2018-08-04T06:06:37.472Z,64.20
2018-08-04T06:09:11.079Z,65.20
2018-08-04T06:11:47.650Z,64.20
2018-08-04T06:14:27.328Z,63.90
2018-08-04T06:17:01.724Z,64.10
2018-08-04T06:19:54.681Z,63.60
2018-08-04T06:22:24.865Z,63.70
2018-08-04T06:24:55.931Z,63.60
2018-08-04T06:27:25.861Z,63.30
2018-08-04T06:29:55.909Z,63.30
2018-08-04T06:32:25.740Z,63.10
2018-08-04T06:35:00.487Z,62.80
2018-08-04T06:37:34.094Z,62.90
2018-08-04T06:40:09.532Z,62.50
2018-08-04T06:42:43.357Z,62.30
2018-08-04T06:45:19.574Z,62.20
2018-08-04T06:47:54.268Z,62.30
2018-08-04T06:50:28.914Z,61.80
2018-08-04T06:53:01.806Z,62.10
2018-08-04T06:55:38.438Z,61.70
2018-08-04T06:58:13.636Z,61.60
2018-08-04T07:00:45.410Z,61.50
2018-08-04T07:03:20.196Z,61.40
2018-08-04T07:06:40.298Z,61.00
2018-08-04T07:09:23.608Z,61.00
2018-08-04T07:12:00.594Z,60.90
2018-08-04T07:14:33.908Z,60.70
2018-08-04T07:17:10.229Z,60.20
2018-08-04T07:19:40.276Z,60.10
2018-08-04T07:22:11.633Z,59.60
2018-08-04T07:24:41.736Z,59.20
2018-08-04T07:27:12.117Z,59.10
2018-08-04T07:29:56.681Z,58.60
2018-08-04T07:35:59.680Z,58.40
2018-08-04T07:38:29.814Z,57.80
2018-08-04T07:41:00.218Z,57.40
2018-08-04T07:43:30.447Z,57.10
2018-08-04T07:46:08.819Z,57.20
2018-08-04T07:48:48.916Z,56.90
2018-08-04T07:56:56.495Z,56.50
2018-08-04T07:59:26.524Z,56.20
2018-08-04T08:01:57.338Z,55.80
2018-08-04T08:04:29.888Z,55.60
2018-08-04T08:07:00.414Z,55.40
2018-08-04T08:09:33.215Z,55.10
2018-08-04T08:12:10.405Z,54.80
2018-08-04T08:14:42.484Z,54.70
2018-08-04T08:17:17.719Z,54.30
2018-08-04T08:19:47.687Z,54.00
2018-08-04T08:22:19.792Z,53.40
2018-08-04T08:25:01.897Z,52.80
2018-08-04T08:27:42.365Z,52.50
2018-08-04T08:30:14.663Z,52.30
2018-08-04T08:32:47.185Z,52.00
2018-08-04T08:35:23.897Z,51.70
2018-08-04T08:38:03.052Z,51.20
2018-08-04T08:40:35.297Z,50.80
2018-08-04T08:43:13.507Z,50.20
2018-08-04T08:45:44.847Z,50.00
2018-08-04T08:48:14.890Z,49.40
2018-08-04T08:50:45.392Z,48.80
2018-08-04T08:53:16.847Z,48.60
2018-08-04T08:55:49.689Z,48.50
2018-08-04T08:58:20.793Z,48.50
2018-08-04T09:00:54.088Z,48.10
2018-08-04T09:03:26.960Z,47.90
2018-08-04T09:05:57.015Z,47.70
2018-08-04T09:08:34.458Z,47.70
2018-08-04T09:11:11.663Z,47.30
2018-08-04T09:13:46.083Z,46.90
2018-08-04T09:16:17.176Z,46.60
2018-08-04T09:18:48.662Z,46.30
2018-08-04T09:21:18.617Z,46.20
2018-08-04T09:23:48.129Z,45.90
2018-08-04T09:26:17.594Z,45.30
2018-08-04T09:28:48.758Z,44.80
2018-08-04T09:31:47.574Z,44.80
2018-08-04T09:34:32.359Z,44.30
2018-08-04T09:37:11.967Z,44.20
2018-08-04T09:40:25.621Z,43.80
2018-08-04T09:43:07.564Z,44.00
2018-08-04T09:46:02.445Z,43.60
2018-08-04T09:48:55.413Z,43.40
2018-08-04T09:51:47.734Z,43.10
2018-08-04T09:54:33.892Z,42.40
2018-08-04T09:57:14.737Z,41.90
2018-08-04T10:00:09.015Z,41.90
2018-08-04T10:03:04.512Z,41.60
2018-08-04T10:05:43.718Z,41.40
2018-08-04T10:11:32.138Z,41.00
2018-08-04T10:14:08.342Z,41.20
2018-08-04T10:16:38.204Z,41.20
2018-08-04T10:19:08.336Z,41.10
2018-08-04T10:21:59.427Z,40.90
2018-08-04T10:24:31.156Z,40.80
2018-08-04T10:27:01.968Z,40.90
2018-08-04T10:29:31.871Z,40.90
2018-08-04T10:35:01.634Z,41.10
2018-08-04T10:37:41.683Z,41.10
2018-08-04T10:43:12.259Z,40.90
2018-08-04T10:45:54.381Z,41.00
2018-08-04T10:48:28.915Z,40.90
2018-08-04T10:51:04.668Z,40.90
2018-08-04T10:53:36.627Z,40.80
2018-08-04T10:56:06.854Z,40.70
2018-08-04T10:58:44.786Z,40.40
2018-08-04T11:01:21.004Z,40.50
2018-08-04T11:03:57.726Z,40.50
2018-08-04T11:06:41.440Z,39.90
2018-08-04T11:12:33.898Z,39.90
2018-08-04T11:15:09.586Z,39.50
2018-08-04T11:17:40.985Z,39.20
2018-08-04T11:20:15.744Z,38.60
2018-08-04T11:22:49.190Z,38.30
2018-08-04T11:25:23.418Z,38.30
2018-08-04T11:27:59.996Z,38.40
2018-08-04T11:33:18.965Z,37.90
2018-08-04T11:36:04.449Z,37.90
2018-08-04T11:38:38.066Z,38.10
2018-08-04T11:41:25.182Z,37.60
2018-08-04T11:43:56.938Z,37.50
2018-08-04T11:46:30.941Z,37.40
2018-08-04T11:49:05.876Z,37.40
2018-08-04T11:51:41.163Z,37.60
2018-08-04T11:54:21.810Z,37.30
2018-08-04T11:56:54.884Z,37.30
2018-08-04T11:59:54.913Z,37.60
2018-08-04T12:02:37.259Z,37.90
2018-08-04T12:05:15.912Z,38.40
2018-08-04T12:08:25.732Z,38.20
2018-08-04T12:10:57.756Z,37.50
2018-08-04T12:13:28.873Z,36.80
2018-08-04T12:18:55.629Z,35.60
2018-08-04T12:21:48.101Z,34.30
2018-08-04T12:24:33.464Z,34.10
2018-08-04T12:27:50.871Z,33.40
2018-08-04T12:30:41.563Z,33.70
2018-08-04T12:33:32.239Z,33.00
2018-08-04T12:36:22.587Z,32.00
2018-08-04T12:45:26.634Z,30.40
2018-08-04T12:48:10.848Z,30.60
2018-08-04T12:54:15.412Z,31.00
2018-08-04T12:58:05.689Z,31.20
2018-08-04T13:00:52.940Z,30.70
2018-08-04T13:03:29.406Z,30.30
2018-08-04T13:06:05.149Z,30.10
2018-08-04T13:08:42.632Z,30.80
2018-08-04T13:11:15.556Z,30.50
2018-08-04T13:13:48.154Z,30.00
2018-08-04T13:16:18.918Z,30.40
2018-08-04T13:19:04.325Z,29.80
2018-08-04T13:21:37.607Z,29.80
2018-08-04T13:24:11.870Z,29.70
2018-08-04T13:26:48.557Z,29.80
2018-08-04T13:30:01.080Z,29.70
2018-08-04T13:32:44.343Z,29.50
2018-08-04T13:35:44.728Z,29.40
2018-08-04T13:38:32.498Z,29.50
2018-08-04T13:41:06.946Z,29.20
2018-08-04T13:43:39.353Z,29.40
2018-08-04T13:46:12.288Z,29.50
2018-08-04T13:48:44.594Z,29.60
2018-08-04T13:51:20.516Z,29.80
2018-08-04T13:53:51.029Z,29.60
2018-08-04T13:56:34.257Z,29.80
2018-08-04T13:59:15.568Z,30.00
2018-08-04T14:02:00.060Z,30.60
2018-08-04T14:04:41.032Z,30.70
2018-08-04T14:07:24.358Z,31.00
2018-08-04T14:10:02.160Z,31.30
2018-08-04T14:12:39.688Z,31.70
2018-08-04T14:15:24.142Z,31.40
2018-08-04T14:18:00.194Z,32.00
2018-08-04T14:20:31.719Z,32.40
2018-08-04T14:23:03.845Z,32.00
2018-08-04T14:25:36.709Z,31.80
2018-08-04T14:28:08.579Z,31.80
2018-08-04T14:30:48.308Z,31.80
2018-08-04T14:33:31.407Z,31.90
2018-08-04T14:36:12.941Z,32.20
2018-08-04T14:38:50.273Z,32.10
2018-08-04T14:41:33.138Z,32.10
2018-08-04T14:44:03.827Z,31.60
2018-08-04T14:46:33.611Z,31.80
2018-08-04T14:49:03.228Z,32.00
2018-08-04T14:51:36.265Z,32.00
2018-08-04T14:54:10.169Z,32.10
2018-08-04T14:56:41.449Z,32.60
2018-08-04T15:05:19.178Z,33.40
2018-08-04T15:07:50.345Z,33.30
2018-08-04T15:10:23.017Z,33.70
2018-08-04T15:12:57.111Z,34.10
2018-08-04T15:15:28.487Z,34.70
2018-08-04T15:17:59.467Z,35.10
2018-08-04T15:20:30.097Z,35.20
2018-08-04T15:23:01.070Z,35.70
2018-08-04T15:25:31.959Z,36.10
2018-08-04T15:28:18.097Z,36.70
2018-08-04T15:30:54.032Z,37.20
2018-08-04T15:33:34.886Z,37.50
2018-08-04T15:36:09.924Z,38.20
2018-08-04T15:38:45.114Z,38.60
2018-08-04T15:41:20.519Z,38.80
2018-08-04T15:43:56.128Z,39.20
2018-08-04T15:46:34.025Z,39.50
2018-08-04T15:49:05.872Z,39.80
2018-08-04T15:51:40.393Z,40.00
2018-08-04T15:54:15.297Z,40.40
2018-08-04T15:56:45.709Z,43.00
2018-08-04T15:59:16.557Z,48.30
2018-08-04T16:01:47.489Z,49.60
2018-08-04T16:04:18.466Z,50.10
2018-08-04T16:06:48.943Z,52.70
2018-08-04T16:09:23.680Z,53.60
2018-08-04T16:11:55.893Z,54.80
2018-08-04T16:14:27.550Z,56.50
2018-08-04T16:17:04.378Z,57.90
2018-08-04T16:19:34.535Z,58.40
2018-08-04T16:22:05.572Z,59.40
2018-08-04T16:24:35.379Z,59.70
2018-08-04T16:27:06.309Z,59.70
2018-08-04T16:29:44.805Z,59.10
2018-08-04T16:32:15.265Z,58.20
2018-08-04T16:34:53.612Z,57.70
2018-08-04T16:37:27.666Z,56.60
2018-08-04T16:40:08.596Z,55.70
2018-08-04T16:42:55.054Z,54.70
2018-08-04T16:45:26.010Z,54.30
2018-08-04T16:47:58.225Z,54.00
2018-08-04T16:50:39.304Z,53.50
2018-08-04T16:53:13.057Z,52.90
2018-08-04T16:55:55.813Z,53.20
2018-08-04T16:58:27.850Z,53.40
2018-08-04T17:01:03.683Z,53.00
2018-08-04T17:03:35.110Z,53.20
2018-08-04T17:06:12.971Z,53.20
2018-08-04T17:09:05.266Z,53.00
2018-08-04T17:11:58.859Z,53.50
2018-08-04T17:14:42.847Z,52.90
2018-08-04T17:17:34.153Z,52.90
2018-08-04T17:20:21.004Z,52.80
2018-08-04T17:22:58.347Z,52.60
2018-08-04T17:25:48.450Z,53.10
2018-08-04T17:28:39.438Z,52.80
2018-08-04T17:31:14.335Z,52.30
2018-08-04T17:33:49.429Z,51.80
2018-08-04T17:36:26.702Z,51.10
2018-08-04T17:39:04.618Z,51.00
2018-08-04T17:41:39.154Z,50.90
2018-08-04T17:44:14.967Z,50.90
2018-08-04T17:46:59.487Z,50.80
2018-08-04T17:49:32.955Z,50.40
2018-08-04T17:52:12.090Z,50.60
2018-08-04T17:57:48.418Z,51.40
2018-08-04T18:00:24.049Z,51.60
2018-08-04T18:02:56.560Z,52.10
2018-08-04T18:05:32.227Z,52.90
2018-08-04T18:08:05.204Z,52.80
2018-08-04T18:10:36.816Z,52.90
2018-08-04T18:13:13.561Z,53.80
2018-08-04T18:15:52.221Z,53.90
2018-08-04T18:21:05.181Z,55.00
2018-08-04T18:23:37.131Z,55.80
2018-08-04T18:26:08.746Z,56.30
2018-08-04T18:28:40.412Z,56.90
2018-08-04T18:31:17.736Z,57.50
2018-08-04T18:33:57.742Z,57.90
2018-08-04T18:36:29.661Z,58.50
2018-08-04T18:39:07.938Z,58.90
2018-08-04T18:41:37.857Z,59.40
2018-08-04T18:44:10.118Z,59.70
2018-08-04T18:46:41.169Z,59.90
2018-08-04T18:49:12.184Z,60.40
2018-08-04T19:01:33.226Z,61.10
2018-08-04T19:04:28.356Z,61.20
2018-08-04T19:07:09.925Z,61.70
2018-08-04T19:09:41.052Z,61.90
2018-08-04T19:12:10.827Z,62.20
2018-08-04T19:14:40.181Z,62.50
2018-08-04T19:17:10.529Z,62.80
2018-08-04T19:23:17.782Z,63.20
2018-08-04T19:26:11.636Z,63.30
2018-08-04T19:28:42.130Z,63.70
2018-08-04T19:31:11.292Z,63.90
2018-08-04T19:33:40.585Z,64.20
2018-08-04T19:36:10.143Z,64.80
2018-08-04T19:38:39.392Z,65.10
2018-08-04T19:41:08.682Z,65.40
2018-08-04T19:43:37.937Z,65.90
2018-08-04T19:49:07.274Z,66.30
2018-08-04T19:51:36.985Z,66.40
2018-08-04T19:54:08.801Z,66.70
2018-08-04T19:56:46.510Z,66.90
2018-08-04T19:59:39.412Z,67.40
2018-08-04T20:02:13.626Z,67.50
2018-08-04T20:04:52.972Z,67.60
2018-08-04T20:07:31.303Z,67.80
2018-08-04T20:10:22.516Z,68.00
2018-08-04T20:13:01.606Z,68.40
2018-08-04T20:15:51.977Z,68.80
2018-08-04T20:19:27.236Z,68.80
2018-08-04T20:22:41.483Z,68.80
2018-08-04T20:31:32.507Z,69.20
2018-08-04T20:34:22.027Z,69.40
2018-08-04T20:36:55.302Z,69.60
2018-08-04T20:39:24.612Z,69.80
2018-08-04T20:41:53.813Z,70.00
2018-08-04T20:44:23.052Z,70.30
2018-08-04T20:46:53.483Z,70.50
2018-08-04T20:49:22.967Z,71.40
2018-08-04T20:51:52.439Z,70.90
2018-08-04T20:54:21.703Z,71.00
2018-08-04T20:56:51.013Z,71.10
2018-08-04T20:59:20.250Z,71.10
2018-08-04T21:01:57.981Z,71.20
2018-08-04T21:04:28.462Z,71.30
2018-08-04T21:06:58.202Z,71.30
2018-08-04T21:09:29.571Z,71.50
2018-08-04T21:11:58.836Z,71.70
2018-08-04T21:14:29.604Z,71.80
2018-08-04T21:16:59.780Z,71.90
2018-08-04T21:19:29.128Z,72.10
2018-08-04T21:21:58.886Z,72.20
2018-08-04T21:24:28.180Z,72.30
2018-08-04T21:26:57.580Z,72.40
2018-08-04T21:29:26.781Z,72.60
2018-08-04T21:31:56.082Z,72.70
2018-08-04T21:34:25.381Z,72.80
2018-08-04T21:36:54.844Z,73.00
2018-08-04T21:39:24.230Z,73.10
2018-08-04T21:41:53.543Z,73.40
2018-08-04T21:44:22.924Z,73.30
2018-08-04T21:46:52.280Z,73.50
2018-08-04T21:49:21.567Z,73.60
2018-08-04T21:51:51.273Z,73.80
2018-08-04T21:54:21.100Z,73.90
2018-08-04T21:56:51.157Z,73.70
2018-08-04T21:59:22.632Z,73.30
2018-08-04T22:01:53.720Z,72.90
2018-08-04T22:04:23.310Z,72.50
2018-08-04T22:08:03.512Z,72.00
2018-08-04T22:10:32.801Z,71.60
2018-08-04T22:13:02.137Z,71.10
2018-08-04T22:15:31.682Z,70.90
2018-08-04T22:18:01.010Z,70.60
2018-08-04T22:20:30.800Z,70.40
2018-08-04T22:23:00.005Z,70.40
2018-08-04T22:25:30.838Z,70.40
2018-08-04T22:28:00.189Z,70.20
2018-08-04T22:30:29.693Z,70.00
2018-08-04T22:32:58.952Z,69.90
2018-08-04T22:35:28.223Z,70.00
2018-08-04T22:37:58.016Z,69.90
2018-08-04T22:40:27.218Z,70.60
2018-08-04T22:42:58.154Z,69.80
2018-08-04T22:45:33.649Z,69.70
2018-08-04T22:48:02.949Z,69.70
2018-08-04T22:50:34.228Z,69.60
2018-08-04T22:53:03.517Z,69.60
2018-08-04T22:55:32.738Z,69.90
2018-08-04T22:58:01.965Z,69.80
2018-08-04T23:00:32.053Z,70.00
2018-08-04T23:03:01.285Z,70.30
2018-08-04T23:05:30.553Z,70.40
2018-08-04T23:07:59.956Z,70.60
2018-08-04T23:10:29.900Z,70.90
2018-08-04T23:12:59.265Z,71.10
2018-08-04T23:15:29.068Z,71.30
2018-08-04T23:17:58.521Z,71.50
2018-08-04T23:20:28.621Z,71.80
2018-08-04T23:22:58.183Z,72.00
2018-08-04T23:25:27.613Z,72.10
2018-08-04T23:27:56.968Z,72.30
2018-08-04T23:30:26.578Z,72.50
2018-08-04T23:32:55.946Z,73.40
2018-08-04T23:35:26.698Z,72.80
2018-08-04T23:37:55.884Z,73.70
2018-08-04T23:40:25.122Z,73.00
2018-08-04T23:42:54.329Z,73.20
2018-08-04T23:45:23.868Z,73.30
2018-08-04T23:47:53.207Z,73.50
2018-08-04T23:50:22.390Z,73.60
2018-08-04T23:52:51.583Z,73.70
2018-08-04T23:55:20.813Z,73.90
2018-08-04T23:57:50.062Z,74.00
